Neptune Voyager — C6FU7 — position and weather

sailwx.info

Track history (hours):
 
Tides and Currents Weather Stations Pressure Air Temp Water Temp Dewpoint Dewpoint Depression Visibility Wind Speed Wind Dir Waves Ship Positions

Neptune Voyager

Last reported at 2017-Feb-16 14:16 UTC. Time now 2017-Feb-20 11:21 UTC.
Position N 44°24' E 037°18'.

Type: Ship. MMSI: 311482000.

Date/timePositionNaut miles runAvg speedWind from/ knotsBaromVisibWave heightAir tempDewpointWater temp
2017-Feb-16 14:16N 44°24' E 037°18'912.8
2017-Feb-16 13:33N 44°29' E 037°29'1212.3
2017-Feb-16 12:33N 44°34' E 037°44'1 1.3
2017-Feb-16 11:33N 44°35' E 037°43'0 0.5
2017-Feb-16 10:33N 44°36' E 037°44'0 0.4
2017-Feb-16 09:33N 44°36' E 037°43'0 0.3
2017-Feb-16 08:33N 44°36' E 037°43'0 0.3
2017-Feb-16 07:33N 44°37' E 037°44'0 0.2
2017-Feb-16 06:33N 44°37' E 037°44'2 2.5
2017-Feb-16 05:33N 44°35' E 037°42'0 0.3
2017-Feb-16 04:33N 44°35' E 037°42'0 0.0
2017-Feb-16 03:33N 44°35' E 037°42'0 0.1
2017-Feb-16 02:33N 44°34' E 037°42'0 0.2
2017-Feb-16 01:33N 44°35' E 037°42'0 0.3
2017-Feb-16 00:33N 44°35' E 037°42'1 1.2
2017-Feb-15 23:33N 44°36' E 037°41'2 0.2
2017-Feb-15 11:32N 44°37' E 037°40'2 2.3
2017-Feb-15 10:33N 44°35' E 037°41'2 2.0
2017-Feb-15 09:33N 44°35' E 037°38'1 1.0
2017-Feb-15 08:33N 44°36' E 037°39'1 0.9
2017-Feb-15 07:33N 44°35' E 037°40'5 4.7
2017-Feb-15 06:33N 44°34' E 037°34'1 0.8
2017-Feb-15 05:31N 44°35' E 037°33'1 0.6
2017-Feb-15 04:33N 44°35' E 037°34'1 0.7
2017-Feb-15 03:33N 44°35' E 037°34'2 2.2
2017-Feb-15 02:33N 44°35' E 037°37'4 4.1
2017-Feb-15 01:34N 44°31' E 037°40'1 0.9
2017-Feb-15 00:33N 44°32' E 037°39'1 0.9
2017-Feb-14 23:33N 44°33' E 037°39'1 0.9
2017-Feb-14 22:33N 44°34' E 037°38'3 2.7
2017-Feb-14 21:33N 44°36' E 037°39'1 0.1
2017-Feb-14 08:31N 44°37' E 037°40'8 2.8
2017-Feb-14 05:33N 44°31' E 037°32'1 1.1
2017-Feb-14 04:33N 44°32' E 037°33'1 1.4
2017-Feb-14 03:33N 44°32' E 037°35'2 1.5
2017-Feb-14 02:33N 44°32' E 037°37'2 1.9
2017-Feb-14 01:33N 44°33' E 037°39'2 2.0
2017-Feb-14 00:33N 44°33' E 037°42'2 1.9
2017-Feb-13 23:33N 44°33' E 037°45'0 0.4
2017-Feb-13 22:33N 44°33' E 037°45'1 0.7
2017-Feb-13 21:33N 44°34' E 037°45'1 0.7
2017-Feb-13 20:33N 44°34' E 037°46'1 0.8
2017-Feb-13 19:33N 44°35' E 037°46'1 1.0
2017-Feb-13 18:33N 44°36' E 037°46'4 3.9
2017-Feb-13 17:33N 44°34' E 037°41'9 8.6
2017-Feb-13 16:31N 44°33' E 037°29'1 1.4
2017-Feb-13 15:32N 44°33' E 037°31'3 3.0
2017-Feb-13 14:33N 44°31' E 037°27'1 1.2
2017-Feb-13 13:33N 44°31' E 037°29'1 1.1
2017-Feb-13 12:33N 44°31' E 037°31'1 1.0
2017-Feb-13 11:34N 44°32' E 037°32'1 0.8
2017-Feb-13 10:33N 44°32' E 037°31'3 2.7
2017-Feb-13 09:33N 44°32' E 037°27'1 1.3
2017-Feb-13 08:33N 44°32' E 037°29'1 1.3
2017-Feb-13 07:33N 44°32' E 037°31'1 1.3
2017-Feb-13 06:33N 44°31' E 037°32'1 0.9
2017-Feb-13 05:33N 44°31' E 037°34'1 0.9
2017-Feb-13 04:33N 44°31' E 037°35'1 0.8
2017-Feb-13 03:33N 44°31' E 037°36'1 0.7
2017-Feb-13 02:33N 44°31' E 037°37'2 1.6
2017-Feb-13 01:33N 44°30' E 037°38'1 1.2
2017-Feb-13 00:33N 44°30' E 037°40'1 1.2
2017-Feb-12 23:34N 44°30' E 037°41'1 1.2
2017-Feb-12 22:33N 44°30' E 037°43'1 1.1
2017-Feb-12 21:33N 44°30' E 037°44'1 1.2
2017-Feb-12 20:34N 44°31' E 037°46'1 1.4
2017-Feb-12 19:33N 44°31' E 037°48'2 1.5
2017-Feb-12 18:34N 44°30' E 037°50'3 3.2
2017-Feb-12 17:34N 44°28' E 037°46'1010.4
2017-Feb-12 16:33N 44°32' E 037°32'11 3.2
2017-Feb-12 13:05N 44°37' E 037°18'1 1.6
2017-Feb-12 12:32N 44°36' E 037°19'2 1.5
2017-Feb-12 11:33N 44°35' E 037°21'2 1.8
2017-Feb-12 10:29N 44°34' E 037°23'2 2.0
2017-Feb-12 09:32N 44°33' E 037°25'2 1.9
2017-Feb-12 08:34N 44°32' E 037°27'2 1.8
2017-Feb-12 07:33N 44°32' E 037°30'2 2.0
2017-Feb-12 06:33N 44°31' E 037°33'3 3.2
2017-Feb-12 05:33N 44°31' E 037°37'1 0.8
2017-Feb-12 04:33N 44°31' E 037°38'2 1.9
2017-Feb-12 03:33N 44°31' E 037°41'2 1.9
2017-Feb-12 02:33N 44°31' E 037°43'2 2.0
2017-Feb-12 01:33N 44°30' E 037°46'2 1.9
2017-Feb-12 00:33N 44°30' E 037°48'1 0.9
2017-Feb-11 23:33N 44°31' E 037°47'1211.9
2017-Feb-11 22:32N 44°31' E 037°30'9 8.5
2017-Feb-11 21:32N 44°35' E 037°20'1 0.6
2017-Feb-11 19:33N 44°35' E 037°21'4 2.0
2017-Feb-11 17:26N 44°34' E 037°27'2 2.2
2017-Feb-11 16:33N 44°33' E 037°29'2 2.0
2017-Feb-11 15:33N 44°32' E 037°31'2 2.1
2017-Feb-11 14:33N 44°31' E 037°34'2 1.9
2017-Feb-11 13:33N 44°31' E 037°37'2 2.1
2017-Feb-11 12:33N 44°31' E 037°40'2 1.8
2017-Feb-11 11:33N 44°31' E 037°42'1 0.8
2017-Feb-11 10:34N 44°31' E 037°43'7 6.7
2017-Feb-11 09:33N 44°31' E 037°34'7 6.9
2017-Feb-11 08:33N 44°32' E 037°24'9 7.2
2017-Feb-11 07:21N 44°38' E 037°16'2 1.1
2017-Feb-11 05:33N 44°37' E 037°17'2 1.8
2017-Feb-11 04:32N 44°36' E 037°20'5 1.6
2017-Feb-11 01:19N 44°34' E 037°27'1 1.8
2017-Feb-11 00:33N 44°34' E 037°28'2 1.7
2017-Feb-10 23:24N 44°34' E 037°31'1 1.6
2017-Feb-10 22:32N 44°34' E 037°33'1 1.4
2017-Feb-10 21:33N 44°33' E 037°35'1 1.4
2017-Feb-10 20:33N 44°33' E 037°37'4 3.8
2017-Feb-10 19:33N 44°31' E 037°32'7 7.3
2017-Feb-10 18:32N 44°34' E 037°23'1 0.5
2017-Feb-10 16:17N 44°34' E 037°24'2 1.8
2017-Feb-10 15:25N 44°33' E 037°26'2 1.9
2017-Feb-10 14:33N 44°33' E 037°28'2 2.1
2017-Feb-10 13:33N 44°32' E 037°31'2 2.0
2017-Feb-10 12:33N 44°32' E 037°34'2 1.9
2017-Feb-10 11:33N 44°32' E 037°36'2 1.6
2017-Feb-10 10:34N 44°31' E 037°38'4 4.0
2017-Feb-10 09:33N 44°31' E 037°33'2 2.0
2017-Feb-10 08:33N 44°31' E 037°36'2 1.8
2017-Feb-10 07:34N 44°30' E 037°38'2 1.7
2017-Feb-10 06:33N 44°30' E 037°41'2 2.2
2017-Feb-10 05:33N 44°30' E 037°44'2 2.1
2017-Feb-10 04:33N 44°30' E 037°46'2 1.5
2017-Feb-10 03:33N 44°31' E 037°49'1 1.1
2017-Feb-10 02:33N 44°31' E 037°50'1 1.2
2017-Feb-10 01:33N 44°30' E 037°51'2 1.5
2017-Feb-10 00:33N 44°29' E 037°53'2 1.7
2017-Feb-09 23:33N 44°28' E 037°55'2 2.1
2017-Feb-09 22:33N 44°27' E 037°57'2 2.1
2017-Feb-09 21:33N 44°27' E 038°00'0 0.5
2017-Feb-09 20:33N 44°27' E 038°01'8 7.9
2017-Feb-09 19:33N 44°27' E 037°50'15 2.3
2017-Feb-09 13:07N 44°20' E 037°32'2239.6
2017-Feb-09 12:33N 44°26' E 038°02'7 2.2
2017-Feb-09 09:13N 44°19' E 038°02'2 0.5
2017-Feb-09 04:33N 44°21' E 038°03'2 1.9
2017-Feb-09 03:31N 44°23' E 038°04'2 2.4
2017-Feb-09 02:33N 44°25' E 038°03'5 5.1
2017-Feb-09 01:33N 44°22' E 037°57'3 2.9
2017-Feb-09 00:33N 44°25' E 037°57'3 2.7
2017-Feb-08 23:33N 44°27' E 038°00'4 4.4
2017-Feb-08 22:33N 44°22' E 038°02'2 2.3
2017-Feb-08 21:33N 44°25' E 038°01'13 1.4
2017-Feb-08 12:34N 44°35' E 037°51'5 4.2
2017-Feb-08 11:18N 44°32' E 037°57'6 7.4
2017-Feb-08 10:33N 44°27' E 037°52'1 1.1
2017-Feb-08 09:33N 44°28' E 037°51'1 1.2
2017-Feb-08 08:33N 44°29' E 037°50'6 6.0
2017-Feb-08 07:31N 44°35' E 037°54'0 0.1
2017-Feb-08 06:31N 44°34' E 037°54'0 0.0
2017-Feb-08 05:31N 44°34' E 037°54'0 0.0
2017-Feb-08 04:28N 44°34' E 037°54'0 0.0
2017-Feb-08 03:31N 44°34' E 037°54'0 0.0
2017-Feb-08 02:31N 44°35' E 037°54'0 0.0
2017-Feb-08 01:31N 44°34' E 037°54'0 0.0
2017-Feb-08 00:31N 44°34' E 037°54'0 0.0
2017-Feb-07 23:31N 44°34' E 037°54'0 0.0
2017-Feb-07 22:31N 44°34' E 037°54'0 0.0
2017-Feb-07 21:31N 44°34' E 037°54'0 0.1
2017-Feb-07 20:31N 44°35' E 037°54'0 0.1
2017-Feb-07 19:31N 44°35' E 037°54'0 0.0
2017-Feb-07 18:31N 44°35' E 037°54'0 0.1
2017-Feb-07 17:31N 44°35' E 037°54'0 0.2
2017-Feb-07 16:31N 44°35' E 037°54'0 0.0
2017-Feb-07 15:31N 44°35' E 037°54'0 0.0
2017-Feb-07 14:31N 44°35' E 037°54'0 0.0
2017-Feb-07 13:31N 44°35' E 037°54'0 0.0
2017-Feb-07 12:31N 44°35' E 037°54'0 0.0
2017-Feb-07 11:31N 44°35' E 037°54'0 0.0
2017-Feb-07 10:31N 44°35' E 037°54'0 0.0
2017-Feb-07 09:31N 44°35' E 037°54'0 0.0
2017-Feb-07 08:31N 44°35' E 037°54'0 0.0
2017-Feb-07 07:31N 44°35' E 037°54'0 0.0
2017-Feb-07 06:31N 44°35' E 037°54'0 0.1
2017-Feb-07 05:31N 44°35' E 037°54'2 1.8
2017-Feb-07 04:33N 44°35' E 037°52'6 5.9
2017-Feb-07 03:33N 44°38' E 037°44'1 0.9
2017-Feb-07 02:33N 44°37' E 037°44'0 0.5
2017-Feb-07 01:33N 44°37' E 037°44'1 1.0
2017-Feb-07 00:33N 44°36' E 037°44'7 7.2
2017-Feb-06 23:33N 44°29' E 037°41'16 7.2
2017-Feb-06 21:22N 44°14' E 037°39'0 0.0
2017-Feb-06 20:31N 44°14' E 037°39'0 0.3
2017-Feb-06 19:19N 44°13' E 037°39'0 0.2
2017-Feb-06 18:30N 44°13' E 037°39'0 0.1
2017-Feb-06 17:16N 44°13' E 037°39'0 0.5
2017-Feb-06 16:33N 44°13' E 037°40'1 0.4
2017-Feb-06 15:11N 44°13' E 037°40'0 0.3
2017-Feb-06 14:33N 44°14' E 037°40'  
Track history (hours):
 
Tides and Currents Weather Stations Pressure Air Temp Water Temp Dewpoint Dewpoint Depression Visibility Wind Speed Wind Dir Waves Ship Positions

Neptune Voyager

Last reported at 2017-Feb-16 14:16 UTC. Time now 2017-Feb-20 11:21 UTC.
Position N 44°24' E 037°18'.

Type: Ship. MMSI: 311482000.

Date/timePositionNaut miles runAvg speedWind from/ knotsBaromVisibWave heightAir tempDewpointWater temp
2017-Feb-16 14:16N 44°24' E 037°18'912.8
2017-Feb-16 13:33N 44°29' E 037°29'1212.3
2017-Feb-16 12:33N 44°34' E 037°44'1 1.3
2017-Feb-16 11:33N 44°35' E 037°43'0 0.5
2017-Feb-16 10:33N 44°36' E 037°44'0 0.4
2017-Feb-16 09:33N 44°36' E 037°43'0 0.3
2017-Feb-16 08:33N 44°36' E 037°43'0 0.3
2017-Feb-16 07:33N 44°37' E 037°44'0 0.2
2017-Feb-16 06:33N 44°37' E 037°44'2 2.5
2017-Feb-16 05:33N 44°35' E 037°42'0 0.3
2017-Feb-16 04:33N 44°35' E 037°42'0 0.0
2017-Feb-16 03:33N 44°35' E 037°42'0 0.1
2017-Feb-16 02:33N 44°34' E 037°42'0 0.2
2017-Feb-16 01:33N 44°35' E 037°42'0 0.3
2017-Feb-16 00:33N 44°35' E 037°42'1 1.2
2017-Feb-15 23:33N 44°36' E 037°41'2 0.2
2017-Feb-15 11:32N 44°37' E 037°40'2 2.3
2017-Feb-15 10:33N 44°35' E 037°41'2 2.0
2017-Feb-15 09:33N 44°35' E 037°38'1 1.0
2017-Feb-15 08:33N 44°36' E 037°39'1 0.9
2017-Feb-15 07:33N 44°35' E 037°40'5 4.7
2017-Feb-15 06:33N 44°34' E 037°34'1 0.8
2017-Feb-15 05:31N 44°35' E 037°33'1 0.6
2017-Feb-15 04:33N 44°35' E 037°34'1 0.7
2017-Feb-15 03:33N 44°35' E 037°34'2 2.2
2017-Feb-15 02:33N 44°35' E 037°37'4 4.1
2017-Feb-15 01:34N 44°31' E 037°40'1 0.9
2017-Feb-15 00:33N 44°32' E 037°39'1 0.9
2017-Feb-14 23:33N 44°33' E 037°39'1 0.9
2017-Feb-14 22:33N 44°34' E 037°38'3 2.7
2017-Feb-14 21:33N 44°36' E 037°39'1 0.1
2017-Feb-14 08:31N 44°37' E 037°40'8 2.8
2017-Feb-14 05:33N 44°31' E 037°32'1 1.1
2017-Feb-14 04:33N 44°32' E 037°33'1 1.4
2017-Feb-14 03:33N 44°32' E 037°35'2 1.5
2017-Feb-14 02:33N 44°32' E 037°37'2 1.9
2017-Feb-14 01:33N 44°33' E 037°39'2 2.0
2017-Feb-14 00:33N 44°33' E 037°42'2 1.9
2017-Feb-13 23:33N 44°33' E 037°45'0 0.4
2017-Feb-13 22:33N 44°33' E 037°45'1 0.7
2017-Feb-13 21:33N 44°34' E 037°45'1 0.7
2017-Feb-13 20:33N 44°34' E 037°46'1 0.8
2017-Feb-13 19:33N 44°35' E 037°46'1 1.0
2017-Feb-13 18:33N 44°36' E 037°46'4 3.9
2017-Feb-13 17:33N 44°34' E 037°41'9 8.6
2017-Feb-13 16:31N 44°33' E 037°29'1 1.4
2017-Feb-13 15:32N 44°33' E 037°31'3 3.0
2017-Feb-13 14:33N 44°31' E 037°27'1 1.2
2017-Feb-13 13:33N 44°31' E 037°29'1 1.1
2017-Feb-13 12:33N 44°31' E 037°31'1 1.0
2017-Feb-13 11:34N 44°32' E 037°32'1 0.8
2017-Feb-13 10:33N 44°32' E 037°31'3 2.7
2017-Feb-13 09:33N 44°32' E 037°27'1 1.3
2017-Feb-13 08:33N 44°32' E 037°29'1 1.3
2017-Feb-13 07:33N 44°32' E 037°31'1 1.3
2017-Feb-13 06:33N 44°31' E 037°32'1 0.9
2017-Feb-13 05:33N 44°31' E 037°34'1 0.9
2017-Feb-13 04:33N 44°31' E 037°35'1 0.8
2017-Feb-13 03:33N 44°31' E 037°36'1 0.7
2017-Feb-13 02:33N 44°31' E 037°37'2 1.6
2017-Feb-13 01:33N 44°30' E 037°38'1 1.2
2017-Feb-13 00:33N 44°30' E 037°40'1 1.2
2017-Feb-12 23:34N 44°30' E 037°41'1 1.2
2017-Feb-12 22:33N 44°30' E 037°43'1 1.1
2017-Feb-12 21:33N 44°30' E 037°44'1 1.2
2017-Feb-12 20:34N 44°31' E 037°46'1 1.4
2017-Feb-12 19:33N 44°31' E 037°48'2 1.5
2017-Feb-12 18:34N 44°30' E 037°50'3 3.2
2017-Feb-12 17:34N 44°28' E 037°46'1010.4
2017-Feb-12 16:33N 44°32' E 037°32'11 3.2
2017-Feb-12 13:05N 44°37' E 037°18'1 1.6
2017-Feb-12 12:32N 44°36' E 037°19'2 1.5
2017-Feb-12 11:33N 44°35' E 037°21'2 1.8
2017-Feb-12 10:29N 44°34' E 037°23'2 2.0
2017-Feb-12 09:32N 44°33' E 037°25'2 1.9
2017-Feb-12 08:34N 44°32' E 037°27'2 1.8
2017-Feb-12 07:33N 44°32' E 037°30'2 2.0
2017-Feb-12 06:33N 44°31' E 037°33'3 3.2
2017-Feb-12 05:33N 44°31' E 037°37'1 0.8
2017-Feb-12 04:33N 44°31' E 037°38'2 1.9
2017-Feb-12 03:33N 44°31' E 037°41'2 1.9
2017-Feb-12 02:33N 44°31' E 037°43'2 2.0
2017-Feb-12 01:33N 44°30' E 037°46'2 1.9
2017-Feb-12 00:33N 44°30' E 037°48'1 0.9
2017-Feb-11 23:33N 44°31' E 037°47'1211.9
2017-Feb-11 22:32N 44°31' E 037°30'9 8.5
2017-Feb-11 21:32N 44°35' E 037°20'1 0.6
2017-Feb-11 19:33N 44°35' E 037°21'4 2.0
2017-Feb-11 17:26N 44°34' E 037°27'2 2.2
2017-Feb-11 16:33N 44°33' E 037°29'2 2.0
2017-Feb-11 15:33N 44°32' E 037°31'2 2.1
2017-Feb-11 14:33N 44°31' E 037°34'2 1.9
2017-Feb-11 13:33N 44°31' E 037°37'2 2.1
2017-Feb-11 12:33N 44°31' E 037°40'2 1.8
2017-Feb-11 11:33N 44°31' E 037°42'1 0.8
2017-Feb-11 10:34N 44°31' E 037°43'7 6.7
2017-Feb-11 09:33N 44°31' E 037°34'7 6.9
2017-Feb-11 08:33N 44°32' E 037°24'9 7.2
2017-Feb-11 07:21N 44°38' E 037°16'2 1.1
2017-Feb-11 05:33N 44°37' E 037°17'2 1.8
2017-Feb-11 04:32N 44°36' E 037°20'5 1.6
2017-Feb-11 01:19N 44°34' E 037°27'1 1.8
2017-Feb-11 00:33N 44°34' E 037°28'2 1.7
2017-Feb-10 23:24N 44°34' E 037°31'1 1.6
2017-Feb-10 22:32N 44°34' E 037°33'1 1.4
2017-Feb-10 21:33N 44°33' E 037°35'1 1.4
2017-Feb-10 20:33N 44°33' E 037°37'4 3.8
2017-Feb-10 19:33N 44°31' E 037°32'7 7.3
2017-Feb-10 18:32N 44°34' E 037°23'1 0.5
2017-Feb-10 16:17N 44°34' E 037°24'2 1.8
2017-Feb-10 15:25N 44°33' E 037°26'2 1.9
2017-Feb-10 14:33N 44°33' E 037°28'2 2.1
2017-Feb-10 13:33N 44°32' E 037°31'2 2.0
2017-Feb-10 12:33N 44°32' E 037°34'2 1.9
2017-Feb-10 11:33N 44°32' E 037°36'2 1.6
2017-Feb-10 10:34N 44°31' E 037°38'4 4.0
2017-Feb-10 09:33N 44°31' E 037°33'2 2.0
2017-Feb-10 08:33N 44°31' E 037°36'2 1.8
2017-Feb-10 07:34N 44°30' E 037°38'2 1.7
2017-Feb-10 06:33N 44°30' E 037°41'2 2.2
2017-Feb-10 05:33N 44°30' E 037°44'2 2.1
2017-Feb-10 04:33N 44°30' E 037°46'2 1.5
2017-Feb-10 03:33N 44°31' E 037°49'1 1.1
2017-Feb-10 02:33N 44°31' E 037°50'1 1.2
2017-Feb-10 01:33N 44°30' E 037°51'2 1.5
2017-Feb-10 00:33N 44°29' E 037°53'2 1.7
2017-Feb-09 23:33N 44°28' E 037°55'2 2.1
2017-Feb-09 22:33N 44°27' E 037°57'2 2.1
2017-Feb-09 21:33N 44°27' E 038°00'0 0.5
2017-Feb-09 20:33N 44°27' E 038°01'8 7.9
2017-Feb-09 19:33N 44°27' E 037°50'15 2.3
2017-Feb-09 13:07N 44°20' E 037°32'2239.6
2017-Feb-09 12:33N 44°26' E 038°02'7 2.2
2017-Feb-09 09:13N 44°19' E 038°02'2 0.5
2017-Feb-09 04:33N 44°21' E 038°03'2 1.9
2017-Feb-09 03:31N 44°23' E 038°04'2 2.4
2017-Feb-09 02:33N 44°25' E 038°03'5 5.1
2017-Feb-09 01:33N 44°22' E 037°57'3 2.9
2017-Feb-09 00:33N 44°25' E 037°57'3 2.7
2017-Feb-08 23:33N 44°27' E 038°00'4 4.4
2017-Feb-08 22:33N 44°22' E 038°02'2 2.3
2017-Feb-08 21:33N 44°25' E 038°01'13 1.4
2017-Feb-08 12:34N 44°35' E 037°51'5 4.2
2017-Feb-08 11:18N 44°32' E 037°57'6 7.4
2017-Feb-08 10:33N 44°27' E 037°52'1 1.1
2017-Feb-08 09:33N 44°28' E 037°51'1 1.2
2017-Feb-08 08:33N 44°29' E 037°50'6 6.0
2017-Feb-08 07:31N 44°35' E 037°54'0 0.1
2017-Feb-08 06:31N 44°34' E 037°54'0 0.0
2017-Feb-08 05:31N 44°34' E 037°54'0 0.0
2017-Feb-08 04:28N 44°34' E 037°54'0 0.0
2017-Feb-08 03:31N 44°34' E 037°54'0 0.0
2017-Feb-08 02:31N 44°35' E 037°54'0 0.0
2017-Feb-08 01:31N 44°34' E 037°54'0 0.0
2017-Feb-08 00:31N 44°34' E 037°54'0 0.0
2017-Feb-07 23:31N 44°34' E 037°54'0 0.0
2017-Feb-07 22:31N 44°34' E 037°54'0 0.0
2017-Feb-07 21:31N 44°34' E 037°54'0 0.1
2017-Feb-07 20:31N 44°35' E 037°54'0 0.1
2017-Feb-07 19:31N 44°35' E 037°54'0 0.0
2017-Feb-07 18:31N 44°35' E 037°54'0 0.1
2017-Feb-07 17:31N 44°35' E 037°54'0 0.2
2017-Feb-07 16:31N 44°35' E 037°54'0 0.0
2017-Feb-07 15:31N 44°35' E 037°54'0 0.0
2017-Feb-07 14:31N 44°35' E 037°54'0 0.0
2017-Feb-07 13:31N 44°35' E 037°54'0 0.0
2017-Feb-07 12:31N 44°35' E 037°54'0 0.0
2017-Feb-07 11:31N 44°35' E 037°54'0 0.0
2017-Feb-07 10:31N 44°35' E 037°54'0 0.0
2017-Feb-07 09:31N 44°35' E 037°54'0 0.0
2017-Feb-07 08:31N 44°35' E 037°54'0 0.0
2017-Feb-07 07:31N 44°35' E 037°54'0 0.0
2017-Feb-07 06:31N 44°35' E 037°54'0 0.1
2017-Feb-07 05:31N 44°35' E 037°54'2 1.8
2017-Feb-07 04:33N 44°35' E 037°52'6 5.9
2017-Feb-07 03:33N 44°38' E 037°44'1 0.9
2017-Feb-07 02:33N 44°37' E 037°44'0 0.5
2017-Feb-07 01:33N 44°37' E 037°44'1 1.0
2017-Feb-07 00:33N 44°36' E 037°44'7 7.2
2017-Feb-06 23:33N 44°29' E 037°41'16 7.2
2017-Feb-06 21:22N 44°14' E 037°39'0 0.0
2017-Feb-06 20:31N 44°14' E 037°39'0 0.3
2017-Feb-06 19:19N 44°13' E 037°39'0 0.2
2017-Feb-06 18:30N 44°13' E 037°39'0 0.1
2017-Feb-06 17:16N 44°13' E 037°39'0 0.5
2017-Feb-06 16:33N 44°13' E 037°40'1 0.4
2017-Feb-06 15:11N 44°13' E 037°40'0 0.3
2017-Feb-06 14:33N 44°14' E 037°40'  

Dump ship's entire track history